sensor_id;sensor_type;location;lat;lon;timestamp;P1;durP1;ratioP1;P2;durP2;ratioP2
3867;SDS011;1949;48.152;11.528;2023-06-22T00:00:55;6.97;;;2.60;;
3867;SDS011;1949;48.152;11.528;2023-06-22T00:03:22;11.43;;;2.50;;
3867;SDS011;1949;48.152;11.528;2023-06-22T00:05:49;4.73;;;2.90;;
3867;SDS011;1949;48.152;11.528;2023-06-22T00:08:16;3.87;;;2.47;;
3867;SDS011;1949;48.152;11.528;2023-06-22T00:10:43;4.63;;;2.70;;
3867;SDS011;1949;48.152;11.528;2023-06-22T00:13:09;9.77;;;2.80;;
3867;SDS011;1949;48.152;11.528;2023-06-22T00:15:36;10.13;;;2.70;;
3867;SDS011;1949;48.152;11.528;2023-06-22T00:18:03;5.40;;;2.70;;
3867;SDS011;1949;48.152;11.528;2023-06-22T00:20:34;5.03;;;3.00;;
3867;SDS011;1949;48.152;11.528;2023-06-22T00:23:02;7.43;;;3.23;;
3867;SDS011;1949;48.152;11.528;2023-06-22T00:25:36;6.67;;;2.30;;
3867;SDS011;1949;48.152;11.528;2023-06-22T00:28:05;6.50;;;3.00;;
3867;SDS011;1949;48.152;11.528;2023-06-22T00:30:31;8.50;;;3.70;;
3867;SDS011;1949;48.152;11.528;2023-06-22T00:32:57;17.47;;;3.30;;
3867;SDS011;1949;48.152;11.528;2023-06-22T00:35:24;7.10;;;2.60;;
3867;SDS011;1949;48.152;11.528;2023-06-22T00:37:59;5.67;;;3.17;;
3867;SDS011;1949;48.152;11.528;2023-06-22T00:40:26;7.17;;;2.70;;
3867;SDS011;1949;48.152;11.528;2023-06-22T00:42:53;4.00;;;2.40;;
3867;SDS011;1949;48.152;11.528;2023-06-22T00:45:19;6.43;;;2.73;;
3867;SDS011;1949;48.152;11.528;2023-06-22T00:47:44;5.30;;;2.83;;
3867;SDS011;1949;48.152;11.528;2023-06-22T00:50:10;8.77;;;3.30;;
3867;SDS011;1949;48.152;11.528;2023-06-22T00:52:43;10.37;;;2.50;;
3867;SDS011;1949;48.152;11.528;2023-06-22T00:55:11;13.40;;;2.77;;
3867;SDS011;1949;48.152;11.528;2023-06-22T00:57:37;7.77;;;2.97;;
3867;SDS011;1949;48.152;11.528;2023-06-22T01:00:03;3.23;;;2.17;;
3867;SDS011;1949;48.152;11.528;2023-06-22T01:02:45;7.97;;;3.17;;
3867;SDS011;1949;48.152;11.528;2023-06-22T01:05:15;6.67;;;2.87;;
3867;SDS011;1949;48.152;11.528;2023-06-22T01:07:47;9.43;;;2.50;;
3867;SDS011;1949;48.152;11.528;2023-06-22T01:13:25;5.90;;;3.70;;
3867;SDS011;1949;48.152;11.528;2023-06-22T01:16:23;8.73;;;2.70;;
3867;SDS011;1949;48.152;11.528;2023-06-22T01:18:52;4.67;;;2.60;;
3867;SDS011;1949;48.152;11.528;2023-06-22T01:21:20;5.50;;;2.60;;
3867;SDS011;1949;48.152;11.528;2023-06-22T01:28:55;8.50;;;3.57;;
3867;SDS011;1949;48.152;11.528;2023-06-22T01:31:24;5.07;;;2.60;;
3867;SDS011;1949;48.152;11.528;2023-06-22T01:33:53;6.70;;;2.93;;
3867;SDS011;1949;48.152;11.528;2023-06-22T01:36:22;8.33;;;2.90;;
3867;SDS011;1949;48.152;11.528;2023-06-22T01:38:49;6.03;;;2.37;;
3867;SDS011;1949;48.152;11.528;2023-06-22T01:41:19;6.63;;;2.90;;
3867;SDS011;1949;48.152;11.528;2023-06-22T01:43:47;9.30;;;3.43;;
3867;SDS011;1949;48.152;11.528;2023-06-22T01:46:15;6.90;;;2.87;;
3867;SDS011;1949;48.152;11.528;2023-06-22T01:48:44;8.40;;;3.60;;
3867;SDS011;1949;48.152;11.528;2023-06-22T01:51:11;4.03;;;2.20;;
3867;SDS011;1949;48.152;11.528;2023-06-22T01:53:37;8.73;;;3.00;;
3867;SDS011;1949;48.152;11.528;2023-06-22T01:56:03;11.53;;;3.60;;
3867;SDS011;1949;48.152;11.528;2023-06-22T01:58:29;7.53;;;2.77;;
3867;SDS011;1949;48.152;11.528;2023-06-22T02:00:58;5.80;;;2.90;;
3867;SDS011;1949;48.152;11.528;2023-06-22T02:03:45;10.30;;;3.30;;
3867;SDS011;1949;48.152;11.528;2023-06-22T02:06:27;12.77;;;3.03;;
3867;SDS011;1949;48.152;11.528;2023-06-22T02:09:01;7.73;;;3.33;;
3867;SDS011;1949;48.152;11.528;2023-06-22T02:11:29;4.10;;;2.47;;
3867;SDS011;1949;48.152;11.528;2023-06-22T02:13:56;5.90;;;2.50;;
3867;SDS011;1949;48.152;11.528;2023-06-22T02:16:23;13.53;;;3.13;;
3867;SDS011;1949;48.152;11.528;2023-06-22T02:18:50;9.03;;;3.00;;
3867;SDS011;1949;48.152;11.528;2023-06-22T02:21:19;7.50;;;3.20;;
3867;SDS011;1949;48.152;11.528;2023-06-22T02:23:46;11.30;;;2.83;;
3867;SDS011;1949;48.152;11.528;2023-06-22T02:26:12;14.80;;;3.17;;
3867;SDS011;1949;48.152;11.528;2023-06-22T02:28:38;6.70;;;2.77;;
3867;SDS011;1949;48.152;11.528;2023-06-22T02:31:04;7.03;;;3.50;;
3867;SDS011;1949;48.152;11.528;2023-06-22T02:33:30;3.30;;;2.43;;
3867;SDS011;1949;48.152;11.528;2023-06-22T02:35:56;7.20;;;3.13;;
3867;SDS011;1949;48.152;11.528;2023-06-22T02:38:22;5.50;;;2.93;;
3867;SDS011;1949;48.152;11.528;2023-06-22T02:40:49;4.73;;;3.00;;
3867;SDS011;1949;48.152;11.528;2023-06-22T02:43:16;9.07;;;3.33;;
3867;SDS011;1949;48.152;11.528;2023-06-22T02:45:42;6.60;;;3.50;;
3867;SDS011;1949;48.152;11.528;2023-06-22T02:48:10;5.40;;;2.80;;
3867;SDS011;1949;48.152;11.528;2023-06-22T02:50:36;8.80;;;3.00;;
3867;SDS011;1949;48.152;11.528;2023-06-22T02:53:02;6.63;;;2.83;;
3867;SDS011;1949;48.152;11.528;2023-06-22T02:55:33;8.67;;;3.70;;
3867;SDS011;1949;48.152;11.528;2023-06-22T02:57:59;4.23;;;2.57;;
3867;SDS011;1949;48.152;11.528;2023-06-22T03:00:27;8.93;;;2.97;;
3867;SDS011;1949;48.152;11.528;2023-06-22T03:02:55;11.60;;;3.07;;
3867;SDS011;1949;48.152;11.528;2023-06-22T03:05:28;6.23;;;2.90;;
3867;SDS011;1949;48.152;11.528;2023-06-22T03:07:57;15.20;;;3.50;;
3867;SDS011;1949;48.152;11.528;2023-06-22T03:10:22;20.37;;;3.87;;
3867;SDS011;1949;48.152;11.528;2023-06-22T03:12:48;6.23;;;3.10;;
3867;SDS011;1949;48.152;11.528;2023-06-22T03:15:14;7.83;;;3.30;;
3867;SDS011;1949;48.152;11.528;2023-06-22T03:17:40;6.57;;;3.17;;
3867;SDS011;1949;48.152;11.528;2023-06-22T03:20:06;6.30;;;3.00;;
3867;SDS011;1949;48.152;11.528;2023-06-22T03:22:38;12.30;;;3.77;;
3867;SDS011;1949;48.152;11.528;2023-06-22T03:25:04;7.67;;;3.27;;
3867;SDS011;1949;48.152;11.528;2023-06-22T03:27:37;8.27;;;4.30;;
3867;SDS011;1949;48.152;11.528;2023-06-22T03:30:03;11.17;;;3.47;;
3867;SDS011;1949;48.152;11.528;2023-06-22T03:32:29;5.73;;;2.87;;
3867;SDS011;1949;48.152;11.528;2023-06-22T03:34:56;9.67;;;3.50;;
3867;SDS011;1949;48.152;11.528;2023-06-22T03:37:25;9.97;;;5.70;;
3867;SDS011;1949;48.152;11.528;2023-06-22T03:39:55;8.70;;;4.60;;
3867;SDS011;1949;48.152;11.528;2023-06-22T03:42:22;9.33;;;5.07;;
3867;SDS011;1949;48.152;11.528;2023-06-22T03:44:47;13.17;;;6.07;;
3867;SDS011;1949;48.152;11.528;2023-06-22T03:47:16;13.53;;;4.70;;
3867;SDS011;1949;48.152;11.528;2023-06-22T03:49:43;9.60;;;4.90;;
3867;SDS011;1949;48.152;11.528;2023-06-22T03:52:08;8.50;;;4.17;;
3867;SDS011;1949;48.152;11.528;2023-06-22T03:54:36;12.37;;;3.63;;
3867;SDS011;1949;48.152;11.528;2023-06-22T03:57:02;10.00;;;3.87;;
3867;SDS011;1949;48.152;11.528;2023-06-22T03:59:28;7.10;;;4.00;;
3867;SDS011;1949;48.152;11.528;2023-06-22T04:01:54;9.57;;;3.27;;
3867;SDS011;1949;48.152;11.528;2023-06-22T04:04:19;4.97;;;2.93;;
3867;SDS011;1949;48.152;11.528;2023-06-22T04:06:45;12.37;;;4.00;;
3867;SDS011;1949;48.152;11.528;2023-06-22T04:09:11;13.13;;;3.80;;
3867;SDS011;1949;48.152;11.528;2023-06-22T04:11:37;10.63;;;3.50;;
3867;SDS011;1949;48.152;11.528;2023-06-22T04:14:04;8.23;;;3.63;;
3867;SDS011;1949;48.152;11.528;2023-06-22T04:16:29;7.50;;;3.00;;
3867;SDS011;1949;48.152;11.528;2023-06-22T04:18:55;12.10;;;3.60;;
3867;SDS011;1949;48.152;11.528;2023-06-22T04:21:21;9.40;;;3.60;;
3867;SDS011;1949;48.152;11.528;2023-06-22T04:23:46;10.03;;;3.57;;
3867;SDS011;1949;48.152;11.528;2023-06-22T04:26:12;7.13;;;4.07;;
3867;SDS011;1949;48.152;11.528;2023-06-22T04:28:41;8.50;;;5.20;;
3867;SDS011;1949;48.152;11.528;2023-06-22T04:31:10;8.00;;;4.13;;
3867;SDS011;1949;48.152;11.528;2023-06-22T04:33:36;8.73;;;4.20;;
3867;SDS011;1949;48.152;11.528;2023-06-22T04:36:06;6.87;;;3.63;;
3867;SDS011;1949;48.152;11.528;2023-06-22T04:38:32;15.90;;;6.90;;
3867;SDS011;1949;48.152;11.528;2023-06-22T04:40:59;10.83;;;5.17;;
3867;SDS011;1949;48.152;11.528;2023-06-22T04:43:28;10.60;;;4.80;;
3867;SDS011;1949;48.152;11.528;2023-06-22T04:45:56;9.67;;;4.10;;
3867;SDS011;1949;48.152;11.528;2023-06-22T04:48:28;11.50;;;5.40;;
3867;SDS011;1949;48.152;11.528;2023-06-22T04:50:58;14.20;;;4.60;;
3867;SDS011;1949;48.152;11.528;2023-06-22T04:53:28;10.93;;;6.10;;
3867;SDS011;1949;48.152;11.528;2023-06-22T04:55:55;15.03;;;7.70;;
3867;SDS011;1949;48.152;11.528;2023-06-22T04:58:20;19.43;;;7.40;;
3867;SDS011;1949;48.152;11.528;2023-06-22T05:00:46;34.40;;;17.63;;
3867;SDS011;1949;48.152;11.528;2023-06-22T05:03:12;20.17;;;9.60;;
3867;SDS011;1949;48.152;11.528;2023-06-22T05:05:38;14.83;;;8.37;;
3867;SDS011;1949;48.152;11.528;2023-06-22T05:08:05;37.33;;;19.50;;
3867;SDS011;1949;48.152;11.528;2023-06-22T05:10:33;30.17;;;12.47;;
3867;SDS011;1949;48.152;11.528;2023-06-22T05:12:59;12.30;;;6.60;;
3867;SDS011;1949;48.152;11.528;2023-06-22T05:15:24;19.97;;;10.13;;
3867;SDS011;1949;48.152;11.528;2023-06-22T05:17:54;36.33;;;14.90;;
3867;SDS011;1949;48.152;11.528;2023-06-22T05:20:20;39.50;;;19.17;;
3867;SDS011;1949;48.152;11.528;2023-06-22T05:22:47;22.97;;;12.00;;
3867;SDS011;1949;48.152;11.528;2023-06-22T05:25:13;20.53;;;10.90;;
3867;SDS011;1949;48.152;11.528;2023-06-22T05:27:39;37.60;;;20.40;;
3867;SDS011;1949;48.152;11.528;2023-06-22T05:30:09;36.37;;;19.63;;
3867;SDS011;1949;48.152;11.528;2023-06-22T05:32:35;32.13;;;15.33;;
3867;SDS011;1949;48.152;11.528;2023-06-22T05:35:02;18.33;;;9.40;;
3867;SDS011;1949;48.152;11.528;2023-06-22T05:37:28;38.23;;;21.37;;
3867;SDS011;1949;48.152;11.528;2023-06-22T05:39:54;37.50;;;19.20;;
3867;SDS011;1949;48.152;11.528;2023-06-22T05:42:20;38.23;;;15.43;;
3867;SDS011;1949;48.152;11.528;2023-06-22T05:44:46;38.13;;;19.80;;
3867;SDS011;1949;48.152;11.528;2023-06-22T05:47:12;15.53;;;7.63;;
3867;SDS011;1949;48.152;11.528;2023-06-22T05:49:38;14.50;;;7.93;;
3867;SDS011;1949;48.152;11.528;2023-06-22T05:52:04;14.80;;;7.67;;
3867;SDS011;1949;48.152;11.528;2023-06-22T05:54:29;17.43;;;8.73;;
3867;SDS011;1949;48.152;11.528;2023-06-22T05:56:56;27.27;;;10.37;;
3867;SDS011;1949;48.152;11.528;2023-06-22T05:59:21;42.70;;;16.80;;
3867;SDS011;1949;48.152;11.528;2023-06-22T06:01:47;73.03;;;38.43;;
3867;SDS011;1949;48.152;11.528;2023-06-22T06:04:18;37.63;;;21.17;;
3867;SDS011;1949;48.152;11.528;2023-06-22T06:06:44;27.90;;;14.17;;
3867;SDS011;1949;48.152;11.528;2023-06-22T06:09:12;16.73;;;6.93;;
3867;SDS011;1949;48.152;11.528;2023-06-22T06:11:38;15.67;;;7.73;;
3867;SDS011;1949;48.152;11.528;2023-06-22T06:14:04;49.07;;;26.70;;
3867;SDS011;1949;48.152;11.528;2023-06-22T06:16:30;28.13;;;13.97;;
3867;SDS011;1949;48.152;11.528;2023-06-22T06:18:58;32.93;;;17.57;;
3867;SDS011;1949;48.152;11.528;2023-06-22T06:21:25;19.60;;;11.67;;
3867;SDS011;1949;48.152;11.528;2023-06-22T06:23:51;18.97;;;7.13;;
3867;SDS011;1949;48.152;11.528;2023-06-22T06:26:18;14.83;;;6.10;;
3867;SDS011;1949;48.152;11.528;2023-06-22T06:28:54;16.60;;;6.70;;
3867;SDS011;1949;48.152;11.528;2023-06-22T06:31:20;19.13;;;9.10;;
3867;SDS011;1949;48.152;11.528;2023-06-22T06:33:46;40.83;;;21.20;;
3867;SDS011;1949;48.152;11.528;2023-06-22T06:36:12;23.53;;;11.87;;
3867;SDS011;1949;48.152;11.528;2023-06-22T06:38:37;23.67;;;11.23;;
3867;SDS011;1949;48.152;11.528;2023-06-22T06:41:03;18.30;;;10.37;;
3867;SDS011;1949;48.152;11.528;2023-06-22T06:43:31;20.30;;;10.70;;
3867;SDS011;1949;48.152;11.528;2023-06-22T06:45:57;15.20;;;7.97;;
3867;SDS011;1949;48.152;11.528;2023-06-22T06:48:22;13.03;;;5.93;;
3867;SDS011;1949;48.152;11.528;2023-06-22T06:50:48;16.20;;;6.50;;
3867;SDS011;1949;48.152;11.528;2023-06-22T06:53:14;30.77;;;16.93;;
3867;SDS011;1949;48.152;11.528;2023-06-22T06:55:45;36.73;;;14.93;;
3867;SDS011;1949;48.152;11.528;2023-06-22T06:58:11;33.87;;;14.47;;
3867;SDS011;1949;48.152;11.528;2023-06-22T07:00:39;29.63;;;12.73;;
3867;SDS011;1949;48.152;11.528;2023-06-22T07:03:06;22.37;;;10.00;;
3867;SDS011;1949;48.152;11.528;2023-06-22T07:05:32;25.30;;;12.13;;
3867;SDS011;1949;48.152;11.528;2023-06-22T07:07:57;29.60;;;7.40;;
3867;SDS011;1949;48.152;11.528;2023-06-22T07:10:24;23.57;;;8.27;;
3867;SDS011;1949;48.152;11.528;2023-06-22T07:12:49;25.83;;;9.50;;
3867;SDS011;1949;48.152;11.528;2023-06-22T07:17:44;29.10;;;12.80;;
3867;SDS011;1949;48.152;11.528;2023-06-22T07:20:09;36.73;;;14.40;;
3867;SDS011;1949;48.152;11.528;2023-06-22T07:22:39;37.07;;;13.60;;
3867;SDS011;1949;48.152;11.528;2023-06-22T07:25:06;26.57;;;12.33;;
3867;SDS011;1949;48.152;11.528;2023-06-22T07:27:35;37.17;;;11.97;;
3867;SDS011;1949;48.152;11.528;2023-06-22T07:30:03;27.77;;;8.27;;
3867;SDS011;1949;48.152;11.528;2023-06-22T07:32:30;31.03;;;9.80;;
3867;SDS011;1949;48.152;11.528;2023-06-22T07:34:58;30.53;;;10.30;;
3867;SDS011;1949;48.152;11.528;2023-06-22T07:37:23;21.83;;;8.57;;
3867;SDS011;1949;48.152;11.528;2023-06-22T07:39:49;27.60;;;7.23;;
3867;SDS011;1949;48.152;11.528;2023-06-22T07:42:18;18.23;;;9.13;;
3867;SDS011;1949;48.152;11.528;2023-06-22T07:44:44;19.33;;;8.60;;
3867;SDS011;1949;48.152;11.528;2023-06-22T07:47:10;22.33;;;8.20;;
3867;SDS011;1949;48.152;11.528;2023-06-22T07:49:36;28.80;;;14.80;;
3867;SDS011;1949;48.152;11.528;2023-06-22T07:52:02;46.63;;;22.97;;
3867;SDS011;1949;48.152;11.528;2023-06-22T07:54:28;55.53;;;28.93;;
3867;SDS011;1949;48.152;11.528;2023-06-22T07:56:54;26.20;;;14.50;;
3867;SDS011;1949;48.152;11.528;2023-06-22T07:59:23;20.83;;;10.10;;
3867;SDS011;1949;48.152;11.528;2023-06-22T08:01:49;22.27;;;12.37;;
3867;SDS011;1949;48.152;11.528;2023-06-22T08:04:15;19.13;;;8.23;;
3867;SDS011;1949;48.152;11.528;2023-06-22T08:06:41;23.23;;;8.97;;
3867;SDS011;1949;48.152;11.528;2023-06-22T08:09:09;23.03;;;7.70;;
3867;SDS011;1949;48.152;11.528;2023-06-22T08:11:36;38.33;;;16.90;;
3867;SDS011;1949;48.152;11.528;2023-06-22T08:14:02;31.03;;;14.77;;
3867;SDS011;1949;48.152;11.528;2023-06-22T08:16:28;25.53;;;15.30;;
3867;SDS011;1949;48.152;11.528;2023-06-22T08:18:56;22.93;;;13.60;;
3867;SDS011;1949;48.152;11.528;2023-06-22T08:21:22;25.70;;;10.90;;
3867;SDS011;1949;48.152;11.528;2023-06-22T08:23:48;34.20;;;11.27;;
3867;SDS011;1949;48.152;11.528;2023-06-22T08:26:15;17.20;;;7.40;;
3867;SDS011;1949;48.152;11.528;2023-06-22T08:28:41;37.63;;;8.53;;
3867;SDS011;1949;48.152;11.528;2023-06-22T08:31:06;29.03;;;9.67;;
3867;SDS011;1949;48.152;11.528;2023-06-22T08:33:34;20.87;;;7.60;;
3867;SDS011;1949;48.152;11.528;2023-06-22T08:36:00;23.17;;;7.27;;
3867;SDS011;1949;48.152;11.528;2023-06-22T08:38:25;21.00;;;8.00;;
3867;SDS011;1949;48.152;11.528;2023-06-22T08:40:51;18.13;;;8.17;;
3867;SDS011;1949;48.152;11.528;2023-06-22T08:43:19;25.47;;;9.90;;
3867;SDS011;1949;48.152;11.528;2023-06-22T08:45:45;33.43;;;13.17;;
3867;SDS011;1949;48.152;11.528;2023-06-22T08:48:11;20.27;;;8.80;;
3867;SDS011;1949;48.152;11.528;2023-06-22T08:50:36;23.23;;;11.07;;
3867;SDS011;1949;48.152;11.528;2023-06-22T08:53:03;25.87;;;13.10;;
3867;SDS011;1949;48.152;11.528;2023-06-22T08:55:30;23.47;;;8.73;;
3867;SDS011;1949;48.152;11.528;2023-06-22T08:57:55;20.67;;;7.13;;
3867;SDS011;1949;48.152;11.528;2023-06-22T09:00:21;21.83;;;8.73;;
3867;SDS011;1949;48.152;11.528;2023-06-22T09:02:48;22.10;;;10.03;;
3867;SDS011;1949;48.152;11.528;2023-06-22T09:05:15;14.00;;;6.03;;
3867;SDS011;1949;48.152;11.528;2023-06-22T09:07:41;24.53;;;6.93;;
3867;SDS011;1949;48.152;11.528;2023-06-22T09:10:09;17.00;;;7.70;;
3867;SDS011;1949;48.152;11.528;2023-06-22T09:12:35;16.23;;;7.27;;
3867;SDS011;1949;48.152;11.528;2023-06-22T09:15:02;12.67;;;6.90;;
3867;SDS011;1949;48.152;11.528;2023-06-22T09:17:29;25.03;;;6.43;;
3867;SDS011;1949;48.152;11.528;2023-06-22T09:19:56;25.17;;;7.60;;
3867;SDS011;1949;48.152;11.528;2023-06-22T09:22:22;20.03;;;7.53;;
3867;SDS011;1949;48.152;11.528;2023-06-22T09:24:50;31.30;;;6.67;;
3867;SDS011;1949;48.152;11.528;2023-06-22T09:27:17;15.97;;;8.73;;
3867;SDS011;1949;48.152;11.528;2023-06-22T09:29:44;16.27;;;7.23;;
3867;SDS011;1949;48.152;11.528;2023-06-22T09:34:40;17.93;;;7.27;;
3867;SDS011;1949;48.152;11.528;2023-06-22T09:37:06;17.83;;;6.20;;
3867;SDS011;1949;48.152;11.528;2023-06-22T09:39:32;16.50;;;6.60;;
3867;SDS011;1949;48.152;11.528;2023-06-22T09:41:59;14.33;;;6.23;;
3867;SDS011;1949;48.152;11.528;2023-06-22T09:44:25;18.27;;;6.27;;
3867;SDS011;1949;48.152;11.528;2023-06-22T09:46:51;18.47;;;5.30;;
3867;SDS011;1949;48.152;11.528;2023-06-22T09:49:17;16.13;;;6.03;;
3867;SDS011;1949;48.152;11.528;2023-06-22T09:51:42;16.83;;;5.90;;
3867;SDS011;1949;48.152;11.528;2023-06-22T09:54:08;15.73;;;6.07;;
3867;SDS011;1949;48.152;11.528;2023-06-22T09:56:34;17.60;;;6.10;;
3867;SDS011;1949;48.152;11.528;2023-06-22T09:59:00;12.97;;;6.53;;
3867;SDS011;1949;48.152;11.528;2023-06-22T10:01:25;26.57;;;7.30;;
3867;SDS011;1949;48.152;11.528;2023-06-22T10:03:55;25.40;;;5.23;;
3867;SDS011;1949;48.152;11.528;2023-06-22T10:06:23;12.43;;;6.00;;
3867;SDS011;1949;48.152;11.528;2023-06-22T10:08:50;17.67;;;6.20;;
3867;SDS011;1949;48.152;11.528;2023-06-22T10:11:17;12.43;;;5.90;;
3867;SDS011;1949;48.152;11.528;2023-06-22T10:13:45;14.77;;;7.10;;
3867;SDS011;1949;48.152;11.528;2023-06-22T10:16:11;19.37;;;7.60;;
3867;SDS011;1949;48.152;11.528;2023-06-22T10:18:37;15.63;;;6.10;;
3867;SDS011;1949;48.152;11.528;2023-06-22T10:21:02;18.43;;;7.70;;
3867;SDS011;1949;48.152;11.528;2023-06-22T10:23:28;16.80;;;7.60;;
3867;SDS011;1949;48.152;11.528;2023-06-22T10:25:54;15.97;;;6.00;;
3867;SDS011;1949;48.152;11.528;2023-06-22T10:28:28;15.77;;;6.53;;
3867;SDS011;1949;48.152;11.528;2023-06-22T10:30:53;20.00;;;6.53;;
3867;SDS011;1949;48.152;11.528;2023-06-22T10:33:19;16.53;;;9.00;;
3867;SDS011;1949;48.152;11.528;2023-06-22T10:35:45;83.00;;;44.17;;
3867;SDS011;1949;48.152;11.528;2023-06-22T10:38:11;46.43;;;25.93;;
3867;SDS011;1949;48.152;11.528;2023-06-22T10:40:36;80.87;;;40.70;;
3867;SDS011;1949;48.152;11.528;2023-06-22T10:45:35;101.77;;;53.87;;
3867;SDS011;1949;48.152;11.528;2023-06-22T10:48:04;79.93;;;45.33;;
3867;SDS011;1949;48.152;11.528;2023-06-22T10:50:29;64.83;;;35.90;;
3867;SDS011;1949;48.152;11.528;2023-06-22T10:55:26;62.10;;;33.17;;
3867;SDS011;1949;48.152;11.528;2023-06-22T10:57:52;48.87;;;27.73;;
3867;SDS011;1949;48.152;11.528;2023-06-22T11:00:19;30.17;;;17.13;;
3867;SDS011;1949;48.152;11.528;2023-06-22T11:02:50;27.27;;;15.07;;
3867;SDS011;1949;48.152;11.528;2023-06-22T11:05:19;48.80;;;27.73;;
3867;SDS011;1949;48.152;11.528;2023-06-22T11:07:51;40.10;;;24.90;;
3867;SDS011;1949;48.152;11.528;2023-06-22T11:10:18;40.13;;;22.90;;
3867;SDS011;1949;48.152;11.528;2023-06-22T11:12:44;36.83;;;16.47;;
3867;SDS011;1949;48.152;11.528;2023-06-22T11:15:10;39.53;;;18.50;;
3867;SDS011;1949;48.152;11.528;2023-06-22T11:17:36;53.23;;;17.40;;
3867;SDS011;1949;48.152;11.528;2023-06-22T11:22:40;13.27;;;6.20;;
3867;SDS011;1949;48.152;11.528;2023-06-22T11:25:07;21.77;;;6.60;;
3867;SDS011;1949;48.152;11.528;2023-06-22T11:27:34;23.00;;;7.10;;
3867;SDS011;1949;48.152;11.528;2023-06-22T11:30:02;19.50;;;6.67;;
3867;SDS011;1949;48.152;11.528;2023-06-22T11:32:38;18.40;;;7.80;;
3867;SDS011;1949;48.152;11.528;2023-06-22T11:37:34;13.80;;;7.53;;
3867;SDS011;1949;48.152;11.528;2023-06-22T11:40:00;20.40;;;7.17;;
3867;SDS011;1949;48.152;11.528;2023-06-22T11:42:28;23.13;;;8.70;;
3867;SDS011;1949;48.152;11.528;2023-06-22T11:44:55;17.37;;;6.60;;
3867;SDS011;1949;48.152;11.528;2023-06-22T11:47:29;22.50;;;7.27;;
3867;SDS011;1949;48.152;11.528;2023-06-22T11:49:55;20.47;;;7.93;;
3867;SDS011;1949;48.152;11.528;2023-06-22T11:52:24;21.67;;;6.80;;
3867;SDS011;1949;48.152;11.528;2023-06-22T11:54:49;18.23;;;8.30;;
3867;SDS011;1949;48.152;11.528;2023-06-22T11:57:16;22.40;;;7.57;;
3867;SDS011;1949;48.152;11.528;2023-06-22T11:59:42;14.83;;;8.13;;
3867;SDS011;1949;48.152;11.528;2023-06-22T12:02:09;20.57;;;7.87;;
3867;SDS011;1949;48.152;11.528;2023-06-22T12:04:37;15.20;;;8.03;;
3867;SDS011;1949;48.152;11.528;2023-06-22T12:07:03;25.00;;;11.10;;
3867;SDS011;1949;48.152;11.528;2023-06-22T12:09:30;32.90;;;10.20;;
3867;SDS011;1949;48.152;11.528;2023-06-22T12:11:55;17.97;;;9.53;;
3867;SDS011;1949;48.152;11.528;2023-06-22T12:14:21;31.70;;;12.67;;
3867;SDS011;1949;48.152;11.528;2023-06-22T12:16:49;36.87;;;19.73;;
3867;SDS011;1949;48.152;11.528;2023-06-22T12:19:16;30.27;;;16.90;;
3867;SDS011;1949;48.152;11.528;2023-06-22T12:21:43;35.40;;;16.70;;
3867;SDS011;1949;48.152;11.528;2023-06-22T12:24:11;21.97;;;9.40;;
3867;SDS011;1949;48.152;11.528;2023-06-22T12:26:37;25.77;;;12.97;;
3867;SDS011;1949;48.152;11.528;2023-06-22T12:29:03;23.37;;;8.77;;
3867;SDS011;1949;48.152;11.528;2023-06-22T12:31:29;18.63;;;8.90;;
3867;SDS011;1949;48.152;11.528;2023-06-22T12:33:54;24.03;;;10.33;;
3867;SDS011;1949;48.152;11.528;2023-06-22T12:36:20;27.07;;;12.83;;
3867;SDS011;1949;48.152;11.528;2023-06-22T12:38:48;29.90;;;13.37;;
3867;SDS011;1949;48.152;11.528;2023-06-22T12:43:49;33.27;;;13.40;;
3867;SDS011;1949;48.152;11.528;2023-06-22T12:46:15;17.90;;;8.30;;
3867;SDS011;1949;48.152;11.528;2023-06-22T12:48:40;42.30;;;10.90;;
3867;SDS011;1949;48.152;11.528;2023-06-22T12:51:08;17.93;;;10.33;;
3867;SDS011;1949;48.152;11.528;2023-06-22T12:53:35;28.83;;;14.33;;
3867;SDS011;1949;48.152;11.528;2023-06-22T12:56:01;22.77;;;7.93;;
3867;SDS011;1949;48.152;11.528;2023-06-22T12:58:36;20.20;;;9.90;;
3867;SDS011;1949;48.152;11.528;2023-06-22T13:01:02;26.67;;;10.37;;
3867;SDS011;1949;48.152;11.528;2023-06-22T13:03:28;29.00;;;17.30;;
3867;SDS011;1949;48.152;11.528;2023-06-22T13:05:53;30.07;;;13.97;;
3867;SDS011;1949;48.152;11.528;2023-06-22T13:10:49;27.43;;;12.77;;
3867;SDS011;1949;48.152;11.528;2023-06-22T13:13:14;32.00;;;14.80;;
3867;SDS011;1949;48.152;11.528;2023-06-22T13:15:41;48.20;;;22.17;;
3867;SDS011;1949;48.152;11.528;2023-06-22T13:18:07;24.73;;;13.40;;
3867;SDS011;1949;48.152;11.528;2023-06-22T13:20:33;20.43;;;12.27;;
3867;SDS011;1949;48.152;11.528;2023-06-22T13:22:59;36.50;;;13.50;;
3867;SDS011;1949;48.152;11.528;2023-06-22T13:25:25;44.03;;;24.10;;
3867;SDS011;1949;48.152;11.528;2023-06-22T13:27:52;69.37;;;41.10;;
3867;SDS011;1949;48.152;11.528;2023-06-22T13:30:19;48.87;;;24.53;;
3867;SDS011;1949;48.152;11.528;2023-06-22T13:32:47;42.23;;;17.30;;
3867;SDS011;1949;48.152;11.528;2023-06-22T13:35:12;35.10;;;18.20;;
3867;SDS011;1949;48.152;11.528;2023-06-22T13:37:43;40.67;;;25.83;;
3867;SDS011;1949;48.152;11.528;2023-06-22T13:40:15;46.07;;;27.83;;
3867;SDS011;1949;48.152;11.528;2023-06-22T13:42:41;33.17;;;13.83;;
3867;SDS011;1949;48.152;11.528;2023-06-22T13:45:07;34.83;;;13.63;;
3867;SDS011;1949;48.152;11.528;2023-06-22T13:47:35;44.60;;;23.80;;
3867;SDS011;1949;48.152;11.528;2023-06-22T13:57:44;30.37;;;12.90;;
3867;SDS011;1949;48.152;11.528;2023-06-22T14:00:12;71.87;;;39.77;;
3867;SDS011;1949;48.152;11.528;2023-06-22T14:02:42;61.27;;;25.30;;
3867;SDS011;1949;48.152;11.528;2023-06-22T14:05:14;38.07;;;16.50;;
3867;SDS011;1949;48.152;11.528;2023-06-22T14:07:42;38.27;;;23.73;;
3867;SDS011;1949;48.152;11.528;2023-06-22T14:10:09;47.87;;;29.33;;
3867;SDS011;1949;48.152;11.528;2023-06-22T14:12:36;58.67;;;31.90;;
3867;SDS011;1949;48.152;11.528;2023-06-22T14:15:03;33.53;;;17.57;;
3867;SDS011;1949;48.152;11.528;2023-06-22T14:17:30;57.13;;;34.93;;
3867;SDS011;1949;48.152;11.528;2023-06-22T14:22:30;36.73;;;22.67;;
3867;SDS011;1949;48.152;11.528;2023-06-22T14:24:59;30.77;;;17.90;;
3867;SDS011;1949;48.152;11.528;2023-06-22T14:27:25;36.13;;;22.10;;
3867;SDS011;1949;48.152;11.528;2023-06-22T14:29:53;49.47;;;27.90;;
3867;SDS011;1949;48.152;11.528;2023-06-22T14:32:19;40.40;;;22.13;;
3867;SDS011;1949;48.152;11.528;2023-06-22T14:40:04;51.50;;;30.43;;
3867;SDS011;1949;48.152;11.528;2023-06-22T14:42:30;33.33;;;14.07;;
3867;SDS011;1949;48.152;11.528;2023-06-22T14:44:56;34.30;;;17.50;;
3867;SDS011;1949;48.152;11.528;2023-06-22T14:47:22;31.37;;;16.13;;
3867;SDS011;1949;48.152;11.528;2023-06-22T14:49:52;47.90;;;17.60;;
3867;SDS011;1949;48.152;11.528;2023-06-22T14:52:19;40.90;;;23.63;;
3867;SDS011;1949;48.152;11.528;2023-06-22T14:54:48;37.93;;;20.70;;
3867;SDS011;1949;48.152;11.528;2023-06-22T14:57:16;31.27;;;17.17;;
3867;SDS011;1949;48.152;11.528;2023-06-22T14:59:45;33.57;;;18.40;;
3867;SDS011;1949;48.152;11.528;2023-06-22T15:02:11;60.87;;;30.80;;
3867;SDS011;1949;48.152;11.528;2023-06-22T15:04:37;56.20;;;33.80;;
3867;SDS011;1949;48.152;11.528;2023-06-22T15:07:05;47.93;;;26.53;;
3867;SDS011;1949;48.152;11.528;2023-06-22T15:09:32;41.23;;;17.07;;
3867;SDS011;1949;48.152;11.528;2023-06-22T15:12:04;41.57;;;23.57;;
3867;SDS011;1949;48.152;11.528;2023-06-22T15:14:32;26.43;;;14.33;;
3867;SDS011;1949;48.152;11.528;2023-06-22T15:16:59;38.43;;;18.27;;
3867;SDS011;1949;48.152;11.528;2023-06-22T15:19:25;57.30;;;31.03;;
3867;SDS011;1949;48.152;11.528;2023-06-22T15:24:23;46.20;;;27.50;;
3867;SDS011;1949;48.152;11.528;2023-06-22T15:26:49;53.60;;;29.07;;
3867;SDS011;1949;48.152;11.528;2023-06-22T15:29:16;49.33;;;25.23;;
3867;SDS011;1949;48.152;11.528;2023-06-22T15:31:43;47.40;;;23.10;;